Latest Weather Observations for Leigh Creek

IDS60801

Issued at 7:35 am CST Wednesday 24 September 2014 (issued every 30 minutes, with the page automatically refreshed every 10 minutes)

About weather observations | Map of weather stations | Latest weather observations for SA | Other Formats
Station Details ID: 017110 Name: LEIGH CREEK AIRPORT Lat: -30.60 Lon: 138.42 Height: 258.8 m
Data from the previous 72 hours. | See also: Recent months at Leigh Creek
Date/Time
CST
Temp
°C
App
Temp
°C
Dew
Point
Rel
Hum
%
Delta-T
°C
Wind Press
QNH
hPa
Press
MSL
hPa
Rain
since 9 am
mm
Dir
 
Spd
km/h
Gust
km/h
Spd
kts
Gust
kts
24/07:30am 15.7 15.0 12.1 79 2.0 S 7 11 4 6 1015.1 1014.7 13.8
24/07:00am 15.0 14.6 12.5 85 1.4 SE 6 9 3 5 1014.7 1014.3 13.8
24/06:30am 14.1 11.6 12.3 89 1.0 ESE 17 20 9 11 1014.3 1013.9 13.8
24/06:00am 14.2 11.3 12.4 89 1.0 E 19 22 10 12 1014.1 1013.6 13.8
24/05:30am 14.0 11.6 12.6 91 0.8 E 17 19 9 10 1014.0 1013.5 13.8
24/05:00am 14.2 13.4 12.9 92 0.7 SE 9 13 5 7 1013.7 1013.2 13.8
24/04:30am 14.2 11.0 13.1 93 0.6 ESE 22 28 12 15 1013.0 1012.5 13.8
24/04:00am 14.1 11.8 13.0 93 0.6 ESE 17 19 9 10 1013.6 1013.1 13.6
24/03:30am 14.0 11.5 12.2 89 1.0 ESE 17 22 9 12 1014.0 1013.5 13.6
24/03:00am 13.7 10.2 12.3 91 0.8 ENE 22 24 12 13 1014.1 1013.6 13.6
24/02:30am 13.6 10.3 12.7 94 0.5 E 22 28 12 15 1014.2 1013.7 13.6
24/02:00am 13.7 11.0 12.8 94 0.5 E 19 20 10 11 1015.0 1014.6 13.6
24/01:30am 13.6 11.4 12.2 91 0.8 SSW 15 24 8 13 1015.6 1015.2 13.4
24/01:00am 13.3 8.2 11.9 91 0.8 WNW 30 39 16 21 1016.8 1016.3 12.8
24/12:44am 14.5 10.1 13.0 91 0.8 NW 28 67 15 36 1017.0 1016.5 9.4
24/12:41am 14.9 11.7 13.1 89 1.0 NW 22 44 12 24 1016.7 1016.2 8.2
24/12:30am 15.4 14.5 12.5 83 1.6 ESE 9 17 5 9 1014.3 1013.9 7.6
24/12:00am 15.3 13.7 12.8 85 1.4 ESE 13 19 7 10 1014.3 1013.9 7.6
 
Date/Time
CST
Temp
°C
App
Temp
°C
Dew
Point
Rel
Hum
%
Delta-T
°C
Wind Press
QNH
hPa
Press
MSL
hPa
Rain
since 9 am
mm
Dir
 
Spd
km/h
Gust
km/h
Spd
kts
Gust
kts
23/11:30pm 14.6 13.4 12.8 89 1.0 SE 11 19 6 10 1014.5 1014.1 7.6
23/11:00pm 14.9 13.0 12.9 88 1.1 SE 15 20 8 11 1014.9 1014.5 7.6
23/10:30pm 14.9 13.5 13.4 91 0.8 SSE 13 24 7 13 1015.5 1015.1 7.6
23/10:00pm 14.8 14.3 13.7 93 0.6 SSE 9 19 5 10 1016.2 1015.8 7.6
23/09:30pm 15.2 13.3 14.2 94 0.6 S 17 19 9 10 1017.0 1016.5 7.6
23/09:00pm 15.6 14.4 14.1 91 0.9 S 13 20 7 11 1017.0 1016.5 7.2
23/08:30pm 15.6 13.7 14.1 91 0.9 ESE 17 24 9 13 1016.3 1015.9 7.2
23/08:00pm 15.6 14.8 14.0 90 0.9 S 11 15 6 8 1016.2 1015.8 6.0
23/07:30pm 15.6 11.3 13.3 86 1.3 W 28 37 15 20 1016.6 1016.1 3.8
23/07:16pm 17.2 11.8 12.3 73 2.7 W 32 39 17 21 1015.6 1015.2 2.4
23/07:00pm 18.7 16.9 12.0 65 3.8 SW 13 15 7 8 1014.1 1013.6 1.8
23/06:30pm 18.5 17.9 11.8 65 3.7 NE 6 11 3 6 1013.4 1012.9 1.8
23/06:00pm 19.4 15.1 10.9 58 4.7 W 24 32 13 17 1013.7 1013.2 0.8
23/05:30pm 20.3 16.8 11.0 55 5.2 W 20 30 11 16 1014.1 1013.6 0.8
23/05:00pm 23.3 17.8 7.4 36 8.4 NNE 26 35 14 19 1013.4 1012.9 0.8
23/04:30pm 21.6 18.0 10.4 49 6.2 N 20 44 11 24 1013.5 1013.0 0.8
23/04:02pm 21.7 15.7 10.2 48 6.3 N 32 50 17 27 1013.8 1013.3 0.6
23/04:00pm 22.3 16.3 10.1 46 6.7 N 32 43 17 23 1013.8 1013.3 0.6
23/03:49pm 22.6 16.2 9.4 43 7.2 N 33 41 18 22 1013.8 1013.3 0.6
23/03:30pm 20.4 19.7 13.1 63 4.2 NW 9 22 5 12 1013.9 1013.4 0.6
23/03:00pm 24.3 18.5 7.9 35 8.8 NE 28 37 15 20 1014.1 1013.6 0.0
23/02:30pm 25.5 17.4 8.5 34 9.3 NNE 41 63 22 34 1014.4 1014.0 0.0
23/02:27pm 26.9 19.2 6.9 28 10.7 NNE 37 56 20 30 1014.3 1013.9 0.0
23/02:00pm 25.1 17.7 6.8 31 9.7 N 35 46 19 25 1014.5 1014.1 0.0
23/01:30pm 25.1 17.1 7.3 32 9.5 N 39 50 21 27 1015.0 1014.6 0.0
23/01:16pm 25.8 17.7 6.9 30 10.0 NNE 39 59 21 32 1015.2 1014.8 0.0
23/01:00pm 24.7 17.4 7.4 33 9.2 NNE 35 50 19 27 1015.4 1015.0 0.0
23/12:44pm 26.1 18.4 8.6 33 9.6 N 39 61 21 33 1015.6 1015.2 0.0
23/12:30pm 26.4 18.6 8.4 32 9.8 NNE 39 52 21 28 1015.8 1015.4 0.0
23/12:00pm 25.1 17.5 9.0 36 8.8 NNE 39 52 21 28 1016.6 1016.1 0.0
23/11:30am 25.1 18.2 9.0 36 8.8 NNE 35 50 19 27 1017.2 1016.7 0.0
23/11:00am 24.1 17.4 9.7 40 8.0 NNE 35 48 19 26 1017.6 1017.1 0.0
23/10:30am 23.5 17.1 9.5 41 7.7 NNE 33 44 18 24 1018.0 1017.6 0.0
23/10:00am 22.3 15.3 9.8 45 6.9 NNE 37 46 20 25 1018.4 1018.0 0.0
23/09:30am 21.5 14.4 9.7 47 6.4 NNE 37 48 20 26 1018.7 1018.3 0.0
23/09:00am 21.0 13.9 9.6 48 6.2 NNE 37 48 20 26 1018.9 1018.5 0.0
23/08:30am 20.7 13.7 9.9 50 5.9 NNE 37 50 20 27 1019.1 1018.7 0.0
23/08:00am 19.7 13.6 9.6 52 5.4 NNE 32 41 17 22 1019.2 1018.8 0.0
23/07:30am 18.8 12.9 9.0 53 5.2 NE 30 39 16 21 1019.2 1018.8 0.0
23/07:00am 17.9 12.4 9.0 56 4.7 NE 28 35 15 19 1019.2 1018.8 0.0
23/06:30am 16.9 11.7 8.8 59 4.2 ENE 26 35 14 19 1018.8 1018.4 0.0
23/06:00am 16.6 11.3 8.6 59 4.1 NE 26 32 14 17 1019.0 1018.6 0.0
23/05:30am 16.7 11.0 8.4 58 4.3 NE 28 35 15 19 1018.7 1018.3 0.0
23/05:00am 16.9 11.2 8.3 57 4.4 NE 28 33 15 18 1018.6 1018.2 0.0
23/04:30am 17.0 10.9 8.4 57 4.4 NE 30 41 16 22 1018.5 1018.1 0.0
23/04:00am 16.7 10.9 8.1 57 4.4 NE 28 35 15 19 1018.6 1018.2 0.0
23/03:30am 16.8 11.4 8.0 56 4.5 NE 26 33 14 18 1018.9 1018.5 0.0
23/03:00am 16.8 12.5 7.7 55 4.6 NE 20 28 11 15 1019.2 1018.8 0.0
23/02:30am 17.3 12.3 7.9 54 4.8 ENE 24 32 13 17 1019.4 1019.0 0.0
23/02:00am 17.6 11.7 7.4 51 5.2 ENE 28 35 15 19 1019.7 1019.3 0.0
23/01:30am 17.6 12.7 6.8 49 5.4 ENE 22 28 12 15 1020.2 1019.8 0.0
23/01:00am 18.1 12.8 6.6 47 5.8 ENE 24 30 13 16 1020.3 1019.9 0.0
23/12:30am 18.4 13.4 6.3 45 6.0 ENE 22 28 12 15 1020.7 1020.2 0.0
23/12:00am 18.7 13.1 5.2 41 6.6 ENE 24 32 13 17 1020.8 1020.3 0.0
 
Date/Time
CST
Temp
°C
App
Temp
°C
Dew
Point
Rel
Hum
%
Delta-T
°C
Wind Press
QNH
hPa
Press
MSL
hPa
Rain
since 9 am
mm
Dir
 
Spd
km/h
Gust
km/h
Spd
kts
Gust
kts
22/11:30pm 14.9 10.3 -1.2 33 6.7 E 13 17 7 9 1021.0 1020.6 0.0
22/11:00pm 14.2 9.4 -2.7 31 6.8 E 13 17 7 9 1020.9 1020.4 0.0
22/10:30pm 15.0 9.8 -2.4 30 7.1 ENE 15 15 8 8 1021.0 1020.6 0.0
22/10:00pm 16.1 10.6 -2.4 28 7.6 E 17 17 9 9 1021.1 1020.7 0.0
22/09:30pm 16.3 11.1 -2.7 27 7.7 E 15 17 8 9 1021.2 1020.8 0.0
22/09:00pm 16.9 10.8 -2.7 26 8.0 E 20 20 11 11 1021.2 1020.8 0.0
22/08:30pm 18.2 12.2 -2.7 24 8.7 E 19 20 10 11 1021.3 1020.9 0.0
22/08:00pm 18.6 13.0 -2.9 23 9.0 E 17 19 9 10 1021.3 1020.9 0.0
22/07:30pm 19.8 14.2 -2.5 22 9.4 E 17 19 9 10 1021.1 1020.7 0.0
22/07:00pm 21.1 15.0 -2.7 20 10.2 E 20 26 11 14 1020.8 1020.3 0.0
22/06:30pm 22.2 15.3 -2.5 19 10.7 E 24 32 13 17 1020.4 1020.0 0.0
22/06:00pm 23.2 14.7 -3.2 17 11.4 E 32 41 17 22 1020.0 1019.6 0.0
22/05:30pm 24.3 15.7 -4.0 15 12.1 E 32 39 17 21 1019.6 1019.2 0.0
22/05:00pm 25.0 17.9 -4.3 14 12.6 ENE 24 32 13 17 1019.5 1019.1 0.0
22/04:46pm 25.5 17.7 -3.9 14 12.8 E 28 50 15 27 1019.2 1018.8 0.0
22/04:30pm 25.7 18.7 -3.8 14 12.9 ENE 24 37 13 20 1019.3 1018.9 0.0
22/04:00pm 26.0 19.0 -3.5 14 13.0 ENE 24 33 13 18 1019.4 1019.0 0.0
22/03:30pm 26.7 18.9 -4.0 13 13.4 ENE 28 41 15 22 1019.7 1019.3 0.0
22/03:00pm 26.0 18.4 -5.6 12 13.4 E 26 41 14 22 1019.8 1019.4 0.0
22/02:30pm 25.8 17.8 -5.7 12 13.3 NE 28 41 15 22 1020.1 1019.7 0.0
22/02:00pm 26.4 18.2 -7.6 10 13.9 NE 28 43 15 23 1020.5 1020.1 0.0
22/01:30pm 26.3 18.3 -5.3 12 13.5 NE 28 41 15 22 1021.1 1020.7 0.0
22/01:00pm 25.6 17.6 -5.9 12 13.2 NE 28 37 15 20 1021.5 1021.1 0.0
22/12:30pm 25.8 18.0 -3.7 14 12.9 ENE 28 46 15 25 1022.1 1021.7 0.0
22/12:24pm 26.2 18.6 -2.4 15 12.9 NE 28 46 15 25 1022.2 1021.8 0.0
22/12:00pm 25.0 16.9 -3.4 15 12.4 NE 30 43 16 23 1022.8 1022.4 0.0
22/11:30am 25.3 18.8 -2.3 16 12.3 NNE 22 35 12 19 1023.3 1022.9 0.0
22/11:12am 25.4 17.4 -2.2 16 12.4 NE 30 48 16 26 1023.6 1023.2 0.0
22/11:00am 24.6 17.0 -2.0 17 11.9 NNE 28 39 15 21 1023.9 1023.5 0.0
22/10:30am 24.2 16.2 -2.4 17 11.7 NE 30 41 16 22 1024.3 1024.0 0.0
22/10:20am 24.2 16.3 -1.6 18 11.6 NE 30 50 16 27 1024.4 1024.1 0.0
22/10:00am 23.5 16.0 -1.4 19 11.2 NE 28 43 15 23 1024.8 1024.4 0.0
22/09:30am 23.3 14.8 -3.1 17 11.4 NE 32 41 17 22 1025.1 1024.7 0.0
22/09:00am 21.9 14.6 -2.7 19 10.6 NE 26 35 14 19 1025.1 1024.7 0.0
22/08:30am 20.2 13.6 -3.4 20 9.8 E 22 28 12 15 1025.0 1024.6 0.0
22/08:00am 18.6 11.5 -4.1 21 9.2 E 24 30 13 16 1025.1 1024.7 0.0
22/07:30am 16.0 9.6 -4.5 24 8.0 E 20 24 11 13 1025.0 1024.6 0.0
22/07:00am 13.2 6.8 -4.9 28 6.8 ESE 20 24 11 13 1025.0 1024.6 0.0
22/06:30am 10.9 4.5 -5.1 32 5.8 ESE 20 24 11 13 1024.8 1024.4 0.0
22/06:00am 11.3 4.1 -5.2 31 6.0 E 24 26 13 14 1024.7 1024.3 0.0
22/05:30am 8.7 2.8 -5.9 35 5.1 ESE 17 17 9 9 1024.4 1024.1 0.0
22/05:00am 9.7 3.8 -5.8 33 5.5 E 17 20 9 11 1024.0 1023.6 0.0
22/04:30am 10.5 6.5 -5.9 31 5.8 E 7 11 4 6 1023.9 1023.5 0.0
22/04:00am 13.6 6.9 -4.5 28 6.9 E 22 28 12 15 1023.7 1023.3 0.0
22/03:30am 13.3 5.3 -5.3 27 6.9 ESE 28 32 15 17 1023.8 1023.4 0.0
22/03:00am 11.9 5.6 -6.0 28 6.5 ESE 19 22 10 12 1024.3 1024.0 0.0
22/02:30am 13.6 7.3 -5.5 26 7.1 E 19 24 10 13 1024.4 1024.1 0.0
22/02:00am 14.4 6.8 -5.9 24 7.6 E 26 32 14 17 1024.5 1024.2 0.0
22/01:30am 13.9 5.9 -5.8 25 7.3 E 28 32 15 17 1025.1 1024.7 0.0
22/01:00am 13.9 6.9 -6.9 23 7.6 E 22 28 12 15 1025.8 1025.4 0.0
22/12:30am 14.6 6.5 -6.3 23 7.7 E 28 30 15 16 1025.9 1025.5 0.0
22/12:00am 12.1 5.8 -6.3 27 6.6 E 19 20 10 11 1026.5 1026.1 0.0
 
Date/Time
CST
Temp
°C
App
Temp
°C
Dew
Point
Rel
Hum
%
Delta-T
°C
Wind Press
QNH
hPa
Press
MSL
hPa
Rain
since 9 am
mm
Dir
 
Spd
km/h
Gust
km/h
Spd
kts
Gust
kts
21/11:30pm 10.9 6.4 -6.9 28 6.2 E 9 13 5 7 1026.5 1026.1 0.0
21/11:00pm 12.1 8.6 -5.8 28 6.5 E 4 9 2 5 1026.7 1026.3 0.0
21/10:30pm 10.8 6.8 -7.9 26 6.4 ESE 6 13 3 7 1026.8 1026.4 0.0
21/10:00pm 12.4 7.9 -7.0 25 6.9 ESE 9 11 5 6 1026.7 1026.3 0.0
21/09:30pm 14.0 9.2 -6.2 24 7.4 ESE 11 13 6 7 1026.6 1026.2 0.0
21/09:00pm 15.0 10.6 -5.9 23 7.8 ESE 9 11 5 6 1026.5 1026.1 0.0
21/08:30pm 14.8 9.9 -6.7 22 7.9 ESE 11 13 6 7 1026.2 1025.8 0.0
21/08:00pm 16.9 11.8 -5.5 21 8.7 SE 13 15 7 8 1026.0 1025.6 0.0
21/07:30pm 18.4 12.1 -5.6 19 9.4 E 19 20 10 11 1025.7 1025.3 0.0
21/07:00pm 18.8 12.9 -5.3 19 9.6 E 17 20 9 11 1025.6 1025.2 0.0
21/06:30pm 19.9 14.3 -6.6 16 10.3 ESE 15 19 8 10 1025.2 1024.8 0.0
21/06:00pm 21.8 14.8 -6.8 14 11.3 E 22 28 12 15 1024.5 1024.2 0.0
21/05:30pm 22.9 15.4 -8.0 12 12.1 E 24 32 13 17 1024.2 1023.8 0.0
21/05:00pm 23.7 16.3 -7.4 12 12.5 E 24 30 13 16 1024.0 1023.6 0.0
21/04:30pm 24.4 17.7 -7.9 11 12.9 E 20 28 11 15 1023.9 1023.5 0.0
21/04:00pm 24.5 17.8 -7.9 11 13.0 E 20 24 11 13 1023.8 1023.4 0.0
21/03:30pm 24.4 17.6 -9.1 10 13.0 E 20 33 11 18 1024.0 1023.6 0.0
21/03:00pm 24.9 17.8 -8.8 10 13.2 E 22 32 12 17 1024.3 1024.0 0.0
21/02:30pm 25.0 19.3 -7.5 11 13.1 SE 15 30 8 16 1024.7 1024.3 0.0
21/02:00pm 24.7 19.5 -6.6 12 12.9 E 13 22 7 12 1025.2 1024.8 0.0
21/01:30pm 24.3 18.6 -8.0 11 12.8 E 15 26 8 14 1025.6 1025.2 0.0
21/01:00pm 23.5 18.4 -5.5 14 12.0 SE 13 20 7 11 1026.2 1025.8 0.0
21/12:30pm 22.8 16.9 -5.2 15 11.5 ESE 17 28 9 15 1026.7 1026.3 0.0
21/12:00pm 23.2 16.1 -4.8 15 11.7 E 24 30 13 16 1027.2 1026.8 0.0
21/11:30am 22.9 16.4 -6.0 14 11.7 ESE 20 30 11 16 1027.7 1027.4 0.0
21/11:00am 21.7 15.4 -4.4 17 10.9 ESE 20 32 11 17 1028.0 1027.7 0.0
21/10:30am 21.1 15.4 -4.1 18 10.4 ESE 17 26 9 14 1028.3 1028.0 0.0
21/10:00am 20.7 14.0 -4.4 18 10.4 E 22 32 12 17 1028.4 1028.1 0.0
21/09:30am 20.0 15.1 -3.0 21 9.6 E 13 22 7 12 1028.4 1028.1 0.0
21/09:00am 18.6 13.4 -2.9 23 8.9 ESE 15 24 8 13 1028.6 1028.3 0.0
21/08:30am 17.8 12.6 -3.0 24 8.5 E 15 19 8 10 1028.4 1028.1 0.0
21/08:00am 15.7 12.9 -3.2 27 7.6 SE 2 7 1 4 1028.1 1027.8 0.0

Other Formats:

Comma delimited format used in spreadsheet applications
http://www.bom.gov.au/fwo/IDS60801/IDS60801.94674.axf

JavaScript Object Notation format (JSON) in row-major order
http://www.bom.gov.au/fwo/IDS60801/IDS60801.94674.json